TimeCDT,TemperatureF,Dew PointF,Humidity,Sea Level PressureIn,VisibilityMPH,Wind Direction,Wind SpeedMPH,Gust SpeedMPH,PrecipitationIn,Events,Conditions,WindDirDegrees,DateUTC
12:53 AM,80.1,64.9,60,30.05,10.0,South,8.1,-,N/A,,Clear,170,2013-08-27 05:53:00
1:53 AM,79.0,64.9,62,30.04,10.0,South,5.8,-,N/A,,Clear,170,2013-08-27 06:53:00
2:53 AM,75.0,64.9,71,30.04,10.0,ESE,3.5,-,N/A,,Clear,110,2013-08-27 07:53:00
3:53 AM,72.0,64.9,78,30.05,10.0,Calm,Calm,-,N/A,,Clear,0,2013-08-27 08:53:00
4:53 AM,72.0,66.0,81,30.05,10.0,ESE,4.6,-,N/A,,Clear,120,2013-08-27 09:53:00
5:53 AM,72.0,66.0,81,30.06,10.0,SE,3.5,-,N/A,,Clear,130,2013-08-27 10:53:00
6:53 AM,72.0,64.9,78,30.07,10.0,SSE,5.8,-,N/A,,Partly Cloudy,150,2013-08-27 11:53:00
7:53 AM,75.0,66.0,73,30.07,10.0,South,10.4,-,N/A,,Partly Cloudy,170,2013-08-27 12:53:00
8:53 AM,79.0,66.9,66,30.08,10.0,South,6.9,-,N/A,,Partly Cloudy,190,2013-08-27 13:53:00
9:53 AM,82.9,68.0,60,30.08,10.0,SSW,9.2,-,N/A,,Clear,210,2013-08-27 14:53:00
10:53 AM,86.0,68.0,55,30.09,10.0,SSW,10.4,18.4,N/A,,Partly Cloudy,200,2013-08-27 15:53:00
11:53 AM,88.0,68.0,51,30.09,10.0,SSW,9.2,-,N/A,,Scattered Clouds,200,2013-08-27 16:53:00
12:53 PM,90.0,68.0,48,30.06,10.0,SSW,10.4,-,N/A,,Partly Cloudy,200,2013-08-27 17:53:00
1:53 PM,89.1,68.0,50,30.04,10.0,South,11.5,18.4,N/A,,Scattered Clouds,180,2013-08-27 18:53:00
2:53 PM,90.0,66.0,45,30.02,10.0,SSE,12.7,-,N/A,,Scattered Clouds,160,2013-08-27 19:53:00
3:53 PM,91.0,66.9,45,30.00,10.0,South,12.7,18.4,N/A,,Scattered Clouds,190,2013-08-27 20:53:00
4:53 PM,91.0,69.1,48,29.99,10.0,South,13.8,-,N/A,,Scattered Clouds,180,2013-08-27 21:53:00
5:53 PM,90.0,69.1,50,29.99,10.0,South,12.7,-,N/A,,Scattered Clouds,190,2013-08-27 22:53:00
6:53 PM,89.1,69.1,52,29.98,10.0,SSW,8.1,-,N/A,,Partly Cloudy,210,2013-08-27 23:53:00
7:53 PM,88.0,68.0,51,29.98,10.0,SW,6.9,-,N/A,,Partly Cloudy,220,2013-08-28 00:53:00
8:53 PM,84.9,68.0,57,29.99,10.0,South,5.8,-,N/A,,Clear,190,2013-08-28 01:53:00
9:53 PM,82.9,69.1,63,30.00,10.0,South,5.8,-,N/A,,Clear,190,2013-08-28 02:53:00
10:53 PM,82.0,69.1,65,30.01,10.0,South,4.6,-,N/A,,Clear,190,2013-08-28 03:53:00
11:53 PM,78.1,69.1,74,30.01,10.0,Calm,Calm,-,N/A,,Clear,0,2013-08-28 04:53:00